Time;durP1;ratioP1;P1;durP2;ratioP2;P2;SDS_P1;SDS_P2;PMS_P1;PMS_P2;Temp;Humidity;BMP_temperature;BMP_pressure;BME280_temperature;BME280_humidity;BME280_pressure;Samples;Min_cycle;Max_cycle;Signal;HPM_P1;HPM_P2
2021/07/29 00:00:14;;;;;;;6.38;3.83;;;;;;;18.44;81.50;100147.34;5087194;28;20055;-81
2021/07/29 00:02:43;;;;;;;7.03;3.78;;;;;;;18.41;81.47;100144.94;5088208;28;20058;-80
2021/07/29 00:05:11;;;;;;;6.20;3.78;;;;;;;18.48;81.58;100156.00;5085154;28;20040;-81
2021/07/29 00:07:39;;;;;;;6.30;3.53;;;;;;;18.46;81.02;100150.75;5090992;28;20547;-81
2021/07/29 00:10:06;;;;;;;6.38;3.53;;;;;;;18.48;81.35;100145.25;5087475;28;20480;-81
2021/07/29 00:12:33;;;;;;;4.35;3.40;;;;;;;18.49;80.67;100142.47;5083893;28;20040;-80
2021/07/29 00:15:00;;;;;;;5.53;3.88;;;;;;;18.48;80.68;100135.38;5088576;28;20469;-81
2021/07/29 00:19:01;;;;;;;4.97;3.33;;;;;;;18.52;80.67;100142.22;5083633;28;20044;-81
2021/07/29 00:20:17;;;;;;;7.63;3.85;;;;;;;18.43;80.43;100124.19;5086215;28;20050;-81
2021/07/29 00:22:52;;;;;;;8.40;3.80;;;;;;;18.52;80.39;100127.94;5085332;28;20046;-81
2021/07/29 00:25:20;;;;;;;5.68;3.50;;;;;;;18.53;79.49;100141.22;5084041;28;20054;-80
2021/07/29 00:27:48;;;;;;;4.63;3.72;;;;;;;18.52;79.50;100131.47;5088917;28;20064;-80
2021/07/29 00:30:16;;;;;;;5.53;3.88;;;;;;;18.52;79.42;100131.47;5088847;28;20046;-80
2021/07/29 00:32:44;;;;;;;7.05;3.55;;;;;;;18.52;79.03;100128.81;5083066;28;20050;-81
2021/07/29 00:35:16;;;;;;;4.05;3.60;;;;;;;18.55;78.31;100128.56;5083050;28;20045;-80
2021/07/29 00:37:49;;;;;;;5.88;3.50;;;;;;;18.55;78.24;100133.06;5084354;28;20046;-81
2021/07/29 00:40:17;;;;;;;6.13;3.45;;;;;;;18.55;77.46;100127.69;5080829;28;20086;-80
2021/07/29 00:42:45;;;;;;;5.93;3.40;;;;;;;18.49;77.41;100129.06;5070958;28;20082;-80
2021/07/29 00:45:13;;;;;;;3.60;3.30;;;;;;;18.47;77.71;100120.28;5081461;28;20079;-81
2021/07/29 00:47:43;;;;;;;4.55;3.20;;;;;;;18.47;76.91;100117.59;5085616;28;20058;-80
2021/07/29 00:50:14;;;;;;;5.75;3.33;;;;;;;18.41;76.68;100117.28;5085282;28;20494;-81
2021/07/29 00:52:46;;;;;;;3.77;3.37;;;;;;;18.45;76.47;100129.44;5086935;28;20049;-81
2021/07/29 00:55:14;;;;;;;4.68;3.30;;;;;;;18.41;76.63;100118.13;5084742;28;20040;-81
2021/07/29 00:57:40;;;;;;;5.20;3.55;;;;;;;18.42;76.62;100122.50;5087515;28;20202;-80
2021/07/29 01:00:08;;;;;;;5.38;3.33;;;;;;;18.39;76.48;100117.41;5090403;28;20048;-81
2021/07/29 01:02:35;;;;;;;4.68;3.35;;;;;;;18.38;76.24;100109.50;5107187;28;20048;-80
2021/07/29 01:05:04;;;;;;;4.97;3.03;;;;;;;18.38;76.17;100104.97;5101588;28;20044;-80
2021/07/29 01:07:32;;;;;;;4.95;3.60;;;;;;;18.43;75.12;100107.25;5089852;28;20495;-80
2021/07/29 01:09:59;;;;;;;3.15;2.83;;;;;;;18.44;74.77;100108.97;5092249;28;20048;-82
2021/07/29 01:12:27;;;;;;;6.10;3.30;;;;;;;18.42;74.78;100109.09;5092606;28;20112;-81
2021/07/29 01:14:54;;;;;;;6.00;3.38;;;;;;;18.41;74.64;100106.56;5103579;28;20028;-81
2021/07/29 01:17:20;;;;;;;5.40;3.38;;;;;;;18.37;74.20;100105.97;5106629;28;20112;-81
2021/07/29 01:19:47;;;;;;;4.15;3.25;;;;;;;18.36;74.55;100106.94;5093719;28;20123;-80
2021/07/29 01:22:16;;;;;;;6.20;3.08;;;;;;;18.36;74.09;100111.44;5088134;28;20051;-80
2021/07/29 01:24:44;;;;;;;5.75;3.00;;;;;;;18.33;74.03;100109.00;5086024;28;20398;-81
2021/07/29 01:27:11;;;;;;;5.03;3.30;;;;;;;18.32;73.96;100102.81;5072741;28;20064;-80
2021/07/29 01:29:38;;;;;;;5.32;3.38;;;;;;;18.30;74.05;100099.41;5084268;28;20115;-81
2021/07/29 01:32:05;;;;;;;4.85;3.20;;;;;;;18.30;74.30;100098.53;5085833;28;21019;-81
2021/07/29 01:34:32;;;;;;;4.82;3.20;;;;;;;18.31;74.04;100090.38;5083601;28;20411;-80
2021/07/29 01:36:59;;;;;;;3.75;3.15;;;;;;;18.26;73.71;100087.22;5088806;28;20055;-80
2021/07/29 01:39:26;;;;;;;5.15;3.20;;;;;;;18.33;73.85;100100.97;5089442;28;20047;-80
2021/07/29 01:41:52;;;;;;;4.30;3.25;;;;;;;18.33;73.63;100091.09;5088311;28;20054;-80
2021/07/29 01:44:19;;;;;;;4.75;3.00;;;;;;;18.30;73.53;100086.00;5090082;28;20055;-81
2021/07/29 01:46:46;;;;;;;6.60;3.63;;;;;;;18.29;73.56;100088.78;5088753;28;20044;-81
2021/07/29 01:49:19;;;;;;;5.85;3.45;;;;;;;18.21;73.60;100076.91;5095984;28;20047;-79
2021/07/29 01:51:45;;;;;;;5.43;3.50;;;;;;;18.23;74.57;100084.81;5090395;28;20048;-81
2021/07/29 01:54:13;;;;;;;7.10;3.40;;;;;;;18.18;75.06;100079.84;5090025;28;20047;-81
2021/07/29 01:56:41;;;;;;;6.72;3.55;;;;;;;18.13;75.52;100078.50;5091623;28;20044;-80
2021/07/29 01:59:07;;;;;;;5.00;3.33;;;;;;;18.11;75.61;100077.78;5091431;28;20594;-81
2021/07/29 02:01:34;;;;;;;4.57;3.40;;;;;;;18.15;75.98;100088.13;5093151;28;20074;-80
2021/07/29 02:04:02;;;;;;;5.18;3.58;;;;;;;18.15;75.68;100084.59;5092928;28;20074;-80
2021/07/29 02:06:28;;;;;;;4.22;3.33;;;;;;;18.13;76.03;100092.75;5091335;28;20086;-81
2021/07/29 02:08:55;;;;;;;4.47;3.40;;;;;;;18.12;75.88;100098.25;5088881;28;20277;-80
2021/07/29 02:11:27;;;;;;;6.38;3.53;;;;;;;18.06;75.58;100090.72;5088244;28;20063;-80
2021/07/29 02:13:54;;;;;;;4.90;3.50;;;;;;;18.05;75.79;100089.03;5087929;28;20139;-81
2021/07/29 02:16:22;;;;;;;5.18;3.40;;;;;;;18.00;75.65;100086.72;5089903;28;20056;-80
2021/07/29 02:18:49;;;;;;;5.63;3.63;;;;;;;18.00;75.64;100078.69;5088341;28;20046;-80
2021/07/29 02:21:16;;;;;;;5.50;3.75;;;;;;;18.00;75.55;100083.19;5086705;28;20054;-81
2021/07/29 02:23:42;;;;;;;6.43;3.80;;;;;;;17.96;75.94;100076.38;5089508;28;21829;-80
2021/07/29 02:26:12;;;;;;;4.95;3.40;;;;;;;17.96;75.88;100081.72;5090144;28;20071;-81
2021/07/29 02:28:39;;;;;;;7.82;3.75;;;;;;;17.95;76.10;100080.88;5089161;28;20048;-81
2021/07/29 02:31:05;;;;;;;5.43;3.70;;;;;;;17.94;76.04;100083.72;5085235;28;20047;-81
2021/07/29 02:33:32;;;;;;;7.40;3.80;;;;;;;17.92;76.52;100085.66;5092702;28;20047;-81
2021/07/29 02:35:59;;;;;;;7.07;3.65;;;;;;;17.91;76.30;100083.97;5096551;28;20047;-81
2021/07/29 02:38:26;;;;;;;4.75;3.75;;;;;;;17.88;76.43;100077.88;5090257;28;20047;-82
2021/07/29 02:40:53;;;;;;;8.35;3.55;;;;;;;17.88;76.76;100085.91;5086713;28;20048;-80
2021/07/29 02:43:20;;;;;;;4.82;3.22;;;;;;;17.88;76.99;100085.06;5089527;28;20074;-80
2021/07/29 02:45:47;;;;;;;6.35;3.60;;;;;;;17.87;76.72;100078.00;5100654;28;20044;-81
2021/07/29 02:48:15;;;;;;;4.93;3.38;;;;;;;17.90;76.70;100087.63;5096324;28;20048;-81
2021/07/29 02:50:42;;;;;;;5.13;3.35;;;;;;;17.91;76.30;100097.34;5103933;28;20170;-81
2021/07/29 02:53:08;;;;;;;5.35;3.53;;;;;;;17.91;75.49;100094.69;5102505;28;20186;-81
2021/07/29 02:55:35;;;;;;;5.72;3.22;;;;;;;17.91;75.91;100095.53;5112794;28;20108;-80
2021/07/29 02:58:02;;;;;;;4.90;3.47;;;;;;;17.89;75.73;100086.75;5105314;28;20040;-80
2021/07/29 03:00:28;;;;;;;5.35;3.40;;;;;;;17.85;75.96;100091.50;5104573;28;20048;-80
2021/07/29 03:02:55;;;;;;;6.15;3.75;;;;;;;17.84;75.86;100086.28;5098820;28;20095;-80
2021/07/29 03:05:22;;;;;;;4.93;4.05;;;;;;;17.83;76.18;100089.94;5091241;28;20055;-81
2021/07/29 03:07:48;;;;;;;5.00;3.75;;;;;;;17.77;76.25;100099.34;5092992;28;20047;-80
2021/07/29 03:10:15;;;;;;;5.25;3.38;;;;;;;17.77;76.27;100093.13;5099723;28;20336;-79
2021/07/29 03:12:42;;;;;;;5.88;3.53;;;;;;;17.74;76.66;100093.38;5103173;28;20104;-80
2021/07/29 03:15:09;;;;;;;5.60;3.58;;;;;;;17.74;76.36;100093.38;5087999;28;20046;-81
2021/07/29 03:17:36;;;;;;;6.05;3.72;;;;;;;17.70;76.62;100092.75;5098312;28;20116;-81
2021/07/29 03:20:03;;;;;;;4.43;3.40;;;;;;;17.69;76.48;100088.38;5091021;28;20131;-80
2021/07/29 03:22:30;;;;;;;4.43;3.42;;;;;;;17.66;76.60;100093.97;5090322;28;20064;-81
2021/07/29 03:24:56;;;;;;;5.20;3.40;;;;;;;17.64;77.19;100095.94;5095414;28;20052;-81
2021/07/29 03:27:23;;;;;;;5.28;3.58;;;;;;;17.58;77.17;100084.84;5091805;28;20519;-80
2021/07/29 03:29:50;;;;;;;7.88;3.65;;;;;;;17.55;77.27;100099.31;5093895;28;20402;-81
2021/07/29 03:32:16;;;;;;;7.05;3.90;;;;;;;17.51;76.56;100089.84;5085330;28;20102;-81
2021/07/29 03:34:43;;;;;;;6.72;3.97;;;;;;;17.47;76.26;100093.75;5094198;28;20046;-81
2021/07/29 03:37:10;;;;;;;5.07;3.72;;;;;;;17.41;76.88;100094.22;5090390;28;20040;-81
2021/07/29 03:39:37;;;;;;;5.53;3.60;;;;;;;17.37;77.14;100100.78;5088013;28;20052;-81
2021/07/29 03:42:03;;;;;;;5.45;3.75;;;;;;;17.38;77.06;100098.00;5085394;28;20045;-80
2021/07/29 03:44:30;;;;;;;6.22;3.05;;;;;;;17.38;77.09;100108.72;5089707;28;20052;-81
2021/07/29 03:46:57;;;;;;;5.28;3.60;;;;;;;17.37;77.17;100103.47;5090900;28;20085;-81
2021/07/29 03:49:24;;;;;;;7.75;4.40;;;;;;;17.33;77.24;100104.69;5089379;28;20101;-81
2021/07/29 03:51:50;;;;;;;5.35;3.80;;;;;;;17.28;77.53;100109.56;5088783;28;20043;-80
2021/07/29 03:54:17;;;;;;;6.70;3.95;;;;;;;17.27;77.42;100102.50;5092903;28;20056;-80
2021/07/29 03:56:44;;;;;;;6.45;3.97;;;;;;;17.25;77.57;100115.16;5097021;28;20041;-81
2021/07/29 03:59:11;;;;;;;6.15;4.20;;;;;;;17.23;77.46;100111.75;5089669;28;20066;-80
2021/07/29 04:01:37;;;;;;;9.32;3.60;;;;;;;17.18;77.87;100115.63;5090261;28;20048;-80
2021/07/29 04:04:05;;;;;;;5.72;4.00;;;;;;;17.16;77.65;100116.72;5095795;28;20055;-80
2021/07/29 04:06:32;;;;;;;7.57;3.55;;;;;;;17.11;78.14;100117.09;5101797;28;20140;-80
2021/07/29 04:08:59;;;;;;;8.38;4.38;;;;;;;17.13;78.77;100122.34;5104550;28;20066;-80
2021/07/29 04:11:26;;;;;;;7.63;4.22;;;;;;;17.15;78.74;100113.22;5093599;28;20079;-80
2021/07/29 04:13:52;;;;;;;6.32;4.30;;;;;;;17.21;78.36;100124.41;5092682;28;20058;-80
2021/07/29 04:16:19;;;;;;;6.97;4.43;;;;;;;17.26;77.76;100125.75;5093282;28;20068;-80
2021/07/29 04:18:46;;;;;;;5.57;3.83;;;;;;;17.31;77.94;100128.06;5088527;28;20047;-81
2021/07/29 04:21:15;;;;;;;5.80;4.03;;;;;;;17.36;77.65;100132.06;5088595;28;20348;-81
2021/07/29 04:23:42;;;;;;;9.27;4.05;;;;;;;17.36;77.66;100126.72;5088220;28;20078;-81
2021/07/29 04:26:10;;;;;;;4.50;3.97;;;;;;;17.40;76.88;100130.00;5089449;28;20048;-81
2021/07/29 04:28:37;;;;;;;4.82;3.63;;;;;;;17.45;76.36;100131.34;5092497;28;20050;-81
2021/07/29 04:31:04;;;;;;;6.10;3.90;;;;;;;17.44;76.08;100129.66;5095847;28;20040;-80
2021/07/29 04:33:30;;;;;;;4.63;3.65;;;;;;;17.44;75.94;100135.00;5094830;28;20048;-82
2021/07/29 04:35:57;;;;;;;6.90;4.10;;;;;;;17.44;76.10;100134.16;5086450;28;20051;-81
2021/07/29 04:38:24;;;;;;;5.40;3.95;;;;;;;17.45;75.52;100141.19;5087104;28;20051;-81
2021/07/29 04:41:00;;;;;;;7.03;4.22;;;;;;;17.48;75.76;100143.63;5088304;28;20135;-81
2021/07/29 04:43:29;;;;;;;7.50;4.10;;;;;;;17.45;75.36;100130.50;5093654;28;20040;-81
2021/07/29 04:46:00;;;;;;;10.05;4.30;;;;;;;17.44;75.37;100134.16;5092005;28;20070;-81
2021/07/29 04:48:26;;;;;;;6.03;4.10;;;;;;;17.43;74.89;100138.66;5093463;28;20048;-81
2021/07/29 04:50:53;;;;;;;8.98;4.35;;;;;;;17.46;75.24;100138.41;5088795;28;20045;-81
2021/07/29 04:53:20;;;;;;;6.25;3.80;;;;;;;17.49;75.15;100138.13;5087809;28;20058;-81
2021/07/29 04:55:46;;;;;;;6.70;3.60;;;;;;;17.53;74.81;100130.72;5092166;28;20059;-81
2021/07/29 04:58:13;;;;;;;6.60;3.50;;;;;;;17.56;74.13;100135.84;5094336;28;20060;-81
2021/07/29 05:00:39;;;;;;;7.65;4.38;;;;;;;17.56;74.25;100129.63;5100337;28;20054;-81
2021/07/29 05:03:06;;;;;;;6.50;4.03;;;;;;;17.56;74.77;100135.84;5103317;28;20105;-81
2021/07/29 05:05:35;;;;;;;5.60;3.85;;;;;;;17.59;74.48;100130.25;5099385;28;20100;-81
2021/07/29 05:08:02;;;;;;;6.75;4.20;;;;;;;17.65;74.53;100136.94;5101325;28;20111;-81
2021/07/29 05:10:28;;;;;;;6.15;4.22;;;;;;;17.63;73.88;100131.69;5105802;28;20100;-82
2021/07/29 05:12:55;;;;;;;7.25;4.40;;;;;;;17.68;73.58;100142.06;5101697;28;20035;-81
2021/07/29 05:15:22;;;;;;;5.20;3.90;;;;;;;17.66;73.74;100136.81;5112128;28;20043;-81
2021/07/29 05:18:12;;;;;;;6.15;3.80;;;;;;;17.65;73.49;100124.41;5109403;28;20039;-81
2021/07/29 05:20:39;;;;;;;7.88;4.20;;;;;;;17.66;73.47;100123.44;5098409;28;20068;-81
2021/07/29 05:23:05;;;;;;;8.57;4.18;;;;;;;17.68;73.79;100129.53;5095870;28;20068;-81
2021/07/29 05:25:35;;;;;;;7.13;4.05;;;;;;;17.72;73.54;100130.13;5095820;28;20143;-81
2021/07/29 05:28:02;;;;;;;6.78;4.35;;;;;;;17.74;72.97;100137.06;5093336;28;20148;-81
2021/07/29 05:30:29;;;;;;;6.00;4.72;;;;;;;17.74;73.01;100136.22;5094243;28;20052;-81
2021/07/29 05:32:57;;;;;;;7.72;4.22;;;;;;;17.76;73.17;100132.44;5095013;28;20136;-81
2021/07/29 05:35:24;;;;;;;5.80;4.15;;;;;;;17.78;73.28;100138.53;5097348;28;20103;-81
2021/07/29 05:37:51;;;;;;;5.72;4.30;;;;;;;17.81;72.84;100137.41;5095147;28;20108;-81
2021/07/29 05:40:18;;;;;;;6.88;3.65;;;;;;;17.82;72.59;100139.97;5097358;28;21751;-81
2021/07/29 05:42:44;;;;;;;7.80;4.22;;;;;;;17.88;73.07;100149.34;5094632;28;20052;-82
2021/07/29 05:45:11;;;;;;;6.95;3.90;;;;;;;17.92;72.22;100144.59;5096808;28;20036;-81
2021/07/29 05:47:39;;;;;;;5.25;4.05;;;;;;;17.93;71.96;100149.84;5097060;28;20050;-81
2021/07/29 05:50:06;;;;;;;7.13;4.00;;;;;;;17.97;72.14;100145.06;5100953;28;20064;-81
2021/07/29 05:52:33;;;;;;;7.57;4.03;;;;;;;18.01;71.93;100155.41;5103578;28;20112;-81
2021/07/29 05:55:00;;;;;;;4.63;3.65;;;;;;;18.08;71.87;100147.72;5100955;28;20060;-80
2021/07/29 05:57:27;;;;;;;7.75;3.92;;;;;;;18.13;71.37;100140.16;5105610;28;20052;-81
2021/07/29 05:59:53;;;;;;;6.53;3.72;;;;;;;18.19;71.07;100155.72;5109356;28;20107;-79
2021/07/29 06:02:20;;;;;;;8.68;4.00;;;;;;;18.26;71.23;100158.78;5100981;28;20096;-79
2021/07/29 06:04:48;;;;;;;5.90;4.03;;;;;;;18.33;69.58;100155.44;5104945;28;20048;-78
2021/07/29 06:07:15;;;;;;;5.57;3.72;;;;;;;18.37;69.99;100150.69;5100975;28;20491;-80
2021/07/29 06:09:42;;;;;;;5.47;3.72;;;;;;;18.41;70.04;100163.72;5107563;28;20074;-81
2021/07/29 06:12:10;;;;;;;7.18;3.70;;;;;;;18.44;69.86;100157.22;5105952;28;20131;-80
2021/07/29 06:14:36;;;;;;;6.78;4.10;;;;;;;18.48;70.16;100170.25;5095942;28;20047;-81
2021/07/29 06:17:03;;;;;;;7.22;4.15;;;;;;;18.52;69.83;100169.03;5088029;28;20048;-81
2021/07/29 06:19:31;;;;;;;5.18;3.80;;;;;;;18.54;69.65;100164.38;5090223;28;20170;-82
2021/07/29 06:21:59;;;;;;;8.65;4.43;;;;;;;18.61;69.92;100169.25;5094265;28;20516;-81
2021/07/29 06:24:27;;;;;;;21.50;5.70;;;;;;;18.67;70.31;100174.09;5093623;28;20056;-79
2021/07/29 06:26:55;;;;;;;6.20;4.20;;;;;;;18.73;70.69;100158.34;5105535;28;20130;-81
2021/07/29 06:29:21;;;;;;;6.75;3.92;;;;;;;18.74;68.96;100176.13;5103288;28;20044;-81
2021/07/29 06:31:48;;;;;;;6.47;3.67;;;;;;;18.72;68.92;100182.63;5106153;28;20036;-81
2021/07/29 06:34:15;;;;;;;6.55;3.80;;;;;;;19.05;67.52;100185.13;5106510;28;20046;-82
2021/07/29 06:36:42;;;;;;;9.05;3.83;;;;;;;19.57;66.81;100175.25;5106669;28;20068;-82
2021/07/29 06:39:08;;;;;;;5.30;3.55;;;;;;;20.05;64.39;100172.75;5107003;28;20131;-80
2021/07/29 06:41:39;;;;;;;12.60;4.38;;;;;;;20.44;62.91;100179.09;5095574;28;20047;-81
2021/07/29 06:44:07;;;;;;;6.63;3.70;;;;;;;20.65;62.74;100179.78;5093584;28;20059;-81
2021/07/29 06:46:37;;;;;;;6.88;3.40;;;;;;;21.06;61.39;100176.94;5098446;28;20130;-82
2021/07/29 06:49:05;;;;;;;6.07;3.70;;;;;;;21.43;59.15;100183.25;5090647;28;20063;-82
2021/07/29 06:51:35;;;;;;;7.00;3.25;;;;;;;21.58;59.82;100183.63;5093306;28;20082;-82
2021/07/29 06:54:04;;;;;;;;;;;;;;;21.90;57.42;100175.94;5092379;28;20050;-82
2021/07/29 06:56:31;;;;;;;5.85;4.00;;;;;;;22.00;57.61;100181.34;5095329;28;20035;-82
2021/07/29 06:58:58;;;;;;;5.63;3.53;;;;;;;22.14;56.75;100180.84;5094191;28;20042;-81
2021/07/29 07:01:25;;;;;;;8.00;5.05;;;;;;;22.06;56.73;100175.31;5090322;28;20071;-81
2021/07/29 07:03:53;;;;;;;7.13;3.92;;;;;;;22.02;56.52;100180.19;5091982;28;20090;-81
2021/07/29 07:06:19;;;;;;;7.22;3.97;;;;;;;22.08;57.31;100186.81;5084383;28;21500;-82
2021/07/29 07:08:46;;;;;;;9.93;3.78;;;;;;;22.32;56.13;100186.25;5089657;28;20066;-82
2021/07/29 07:11:17;;;;;;;5.15;3.70;;;;;;;22.40;55.73;100186.31;5095360;28;20052;-82
2021/07/29 07:13:46;;;;;;;4.63;3.30;;;;;;;22.38;56.43;100185.63;5102476;28;20366;-82
2021/07/29 07:16:15;;;;;;;8.77;3.58;;;;;;;22.18;55.90;100194.88;5099118;28;20518;-80
2021/07/29 07:18:44;;;;;;;3.97;3.17;;;;;;;22.07;57.42;100190.50;5093982;28;20079;-82
2021/07/29 07:21:11;;;;;;;4.03;3.42;;;;;;;22.17;56.36;100190.47;5094951;28;20535;-80
2021/07/29 07:23:40;;;;;;;4.60;3.35;;;;;;;21.93;55.82;100180.19;5097760;28;20049;-80
2021/07/29 07:26:17;;;;;;;5.95;3.10;;;;;;;21.64;58.04;100183.88;5100554;28;20093;-81
2021/07/29 07:28:45;;;;;;;5.57;3.10;;;;;;;21.53;57.46;100180.53;5078545;28;20046;-83
2021/07/29 07:31:12;;;;;;;5.28;3.60;;;;;;;21.61;57.73;100176.09;5091067;28;20055;-83
2021/07/29 07:33:38;;;;;;;4.07;3.10;;;;;;;21.91;57.68;100174.09;5089248;28;20043;-82
2021/07/29 07:36:05;;;;;;;5.43;3.50;;;;;;;22.22;57.02;100169.28;5092571;28;20055;-82
2021/07/29 07:38:32;;;;;;;4.97;3.47;;;;;;;22.53;56.15;100165.22;5092194;28;20058;-82
2021/07/29 07:41:06;;;;;;;6.03;3.20;;;;;;;22.84;53.53;100175.63;5093283;28;20064;-82
2021/07/29 07:43:33;;;;;;;4.35;3.08;;;;;;;22.98;52.63;100165.13;5093662;28;20058;-83
2021/07/29 07:46:01;;;;;;;4.65;3.05;;;;;;;23.00;51.57;100167.66;5096472;28;20045;-81
2021/07/29 07:48:28;;;;;;;4.88;3.13;;;;;;;23.18;52.84;100159.53;5081968;28;20051;-83
2021/07/29 07:50:56;;;;;;;10.63;4.18;;;;;;;23.18;51.55;100156.81;5090573;28;20089;-82
2021/07/29 07:53:25;;;;;;;6.07;3.22;;;;;;;23.47;50.39;100162.75;5094087;28;20064;-82
2021/07/29 07:55:53;;;;;;;6.73;3.33;;;;;;;23.36;50.40;100160.31;5096585;28;20105;-81
2021/07/29 07:58:20;;;;;;;5.00;3.10;;;;;;;23.09;50.72;100166.75;5100332;28;20131;-81
2021/07/29 08:00:46;;;;;;;7.85;3.58;;;;;;;23.04;51.44;100158.25;5100361;28;20373;-81
2021/07/29 08:03:14;;;;;;;8.73;3.70;;;;;;;22.92;51.60;100181.13;5100578;28;20080;-82
2021/07/29 08:05:42;;;;;;;6.72;3.45;;;;;;;22.67;52.10;100172.75;5081277;28;20087;-82
2021/07/29 08:08:09;;;;;;;5.25;3.30;;;;;;;22.41;53.49;100169.16;5095648;28;20723;-82
2021/07/29 08:10:38;;;;;;;7.78;2.90;;;;;;;22.18;53.67;100174.16;5095412;28;20052;-82
2021/07/29 08:13:06;;;;;;;4.82;3.22;;;;;;;22.05;54.57;100171.78;5098902;28;20048;-81
2021/07/29 08:15:34;;;;;;;5.78;3.85;;;;;;;21.94;55.30;100158.47;5094826;28;20161;-82
2021/07/29 08:18:00;;;;;;;4.57;3.15;;;;;;;22.23;54.67;100162.88;5091120;28;20070;-82
2021/07/29 08:20:28;;;;;;;4.38;2.97;;;;;;;22.41;52.93;100161.03;5093804;28;20123;-81
2021/07/29 08:22:56;;;;;;;7.50;3.15;;;;;;;22.58;53.32;100154.81;5087603;28;20047;-83
2021/07/29 08:25:24;;;;;;;8.70;3.28;;;;;;;22.80;53.66;100148.13;5098091;28;20582;-82
2021/07/29 08:27:52;;;;;;;7.72;3.60;;;;;;;23.09;53.25;100154.09;5099515;28;20095;-82
2021/07/29 08:30:20;;;;;;;5.70;3.17;;;;;;;23.27;49.84;100145.94;5093311;28;20074;-81
2021/07/29 08:32:47;;;;;;;5.78;2.92;;;;;;;23.45;49.24;100153.97;5083104;28;20078;-81
2021/07/29 08:35:13;;;;;;;5.82;2.75;;;;;;;23.59;47.29;100157.97;5103015;28;20048;-81
2021/07/29 08:37:45;;;;;;;9.70;2.95;;;;;;;23.68;47.75;100159.69;5094012;28;20124;-80
2021/07/29 08:40:22;;;;;;;4.70;2.78;;;;;;;24.00;46.51;100157.13;5095204;28;20075;-82
2021/07/29 08:42:53;;;;;;;3.33;2.30;;;;;;;24.18;45.23;100153.44;5096614;28;20632;-82
2021/07/29 08:45:20;;;;;;;3.20;2.10;;;;;;;24.08;45.27;100156.31;5096518;28;20047;-81
2021/07/29 08:47:52;;;;;;;5.53;2.50;;;;;;;24.00;45.94;100157.13;5102872;28;20048;-80
2021/07/29 08:50:22;;;;;;;4.57;2.47;;;;;;;23.95;45.84;100154.03;5102862;28;20052;-82
2021/07/29 08:52:50;;;;;;;5.72;2.50;;;;;;;24.05;46.22;100152.06;5100549;28;20048;-82
2021/07/29 08:55:19;;;;;;;5.70;2.10;;;;;;;23.97;45.75;100138.50;5091628;28;20044;-82
2021/07/29 08:57:46;;;;;;;6.03;2.30;;;;;;;23.93;45.49;100149.81;5103004;28;20083;-81
2021/07/29 09:00:13;;;;;;;5.03;2.22;;;;;;;23.83;44.99;100149.09;5104630;28;20053;-82
2021/07/29 09:02:40;;;;;;;3.53;2.55;;;;;;;23.93;44.63;100156.06;5109764;28;20135;-82
2021/07/29 09:05:18;;;;;;;3.00;1.95;;;;;;;23.89;43.49;100161.97;5105300;28;20063;-81
2021/07/29 09:08:01;;;;;;;4.43;2.22;;;;;;;23.95;43.83;100161.31;5104841;28;20056;-82
2021/07/29 09:10:28;;;;;;;3.65;2.20;;;;;;;23.93;43.21;100163.31;5098014;28;20673;-82
2021/07/29 09:13:09;;;;;;;3.03;1.90;;;;;;;23.87;43.42;100164.84;5102617;28;20100;-82
2021/07/29 09:15:39;;;;;;;3.40;1.90;;;;;;;23.90;44.47;100163.69;5104867;28;20039;-82
2021/07/29 09:18:07;;;;;;;4.47;1.90;;;;;;;24.02;43.59;100160.50;5115743;28;20062;-81
2021/07/29 09:20:34;;;;;;;4.05;1.90;;;;;;;24.06;42.45;100169.16;5102145;28;20051;-82
2021/07/29 09:23:17;;;;;;;4.72;1.83;;;;;;;24.07;43.32;100158.16;5090541;28;20134;-82
2021/07/29 09:25:46;;;;;;;3.88;1.77;;;;;;;24.14;42.60;100147.53;5095143;28;20072;-82
2021/07/29 09:28:34;;;;;;;4.67;1.93;;;;;;;24.09;42.71;100163.38;5095321;28;20044;-82
2021/07/29 09:31:14;;;;;;;3.80;1.85;;;;;;;24.00;41.69;100161.69;5089671;28;20572;-82
2021/07/29 09:33:58;;;;;;;4.78;1.80;;;;;;;23.94;42.59;100162.31;5096275;28;22273;-81
2021/07/29 09:36:28;;;;;;;3.22;2.30;;;;;;;23.92;41.52;100153.56;5085237;28;20132;-82
2021/07/29 09:39:17;;;;;;;4.28;2.25;;;;;;;23.94;40.50;100165.03;5095037;28;20051;-82
2021/07/29 09:41:44;;;;;;;3.88;2.05;;;;;;;23.93;40.26;100166.88;5097635;28;20046;-86
2021/07/29 09:44:13;;;;;;;4.00;2.03;;;;;;;23.93;40.50;100164.19;5093678;28;20051;-85
2021/07/29 09:46:41;;;;;;;;;;;;;;;24.00;41.57;100167.94;5095460;28;20131;-82
2021/07/29 09:49:09;;;;;;;3.10;1.58;;;;;;;24.08;40.91;100167.13;5086761;28;20453;-80
2021/07/29 09:51:39;;;;;;;2.63;1.75;;;;;;;24.04;41.16;100173.88;5089954;28;20200;-80
2021/07/29 09:54:09;;;;;;;3.90;1.63;;;;;;;24.01;41.27;100161.53;5092384;28;20139;-81
2021/07/29 09:56:36;;;;;;;3.75;2.08;;;;;;;23.97;41.35;100162.00;5095189;28;20116;-82
2021/07/29 09:59:14;;;;;;;3.42;2.13;;;;;;;23.97;41.35;100162.00;5094352;28;20085;-80
2021/07/29 10:01:42;;;;;;;3.53;1.50;;;;;;;23.94;41.44;100160.47;5097594;28;20180;-80
2021/07/29 10:04:12;;;;;;;4.80;2.20;;;;;;;23.98;40.75;100164.53;5091852;28;20044;-81
2021/07/29 10:06:40;;;;;;;3.92;1.73;;;;;;;23.67;41.14;100163.41;5091273;28;20115;-80
2021/07/29 10:09:12;;;;;;;2.95;2.00;;;;;;;23.55;42.27;100165.53;5084526;28;20086;-80
2021/07/29 10:11:44;;;;;;;3.83;2.33;;;;;;;23.43;42.61;100167.66;5101707;28;20074;-80
2021/07/29 10:14:11;;;;;;;4.03;2.15;;;;;;;23.49;42.17;100146.38;5096574;28;20116;-80
2021/07/29 10:16:47;;;;;;;4.97;2.00;;;;;;;23.90;42.48;100151.00;5097362;28;20418;-78
2021/07/29 10:19:15;;;;;;;4.65;1.90;;;;;;;24.18;40.26;100158.88;5092962;28;20427;-79
2021/07/29 10:21:44;;;;;;;4.10;1.80;;;;;;;24.37;40.23;100159.47;5093746;28;20058;-79
2021/07/29 10:24:13;;;;;;;2.88;1.80;;;;;;;24.31;39.84;100153.84;5081005;28;20059;-80
2021/07/29 10:26:58;;;;;;;3.35;1.85;;;;;;;24.25;39.47;100176.16;5098385;28;20130;-79
2021/07/29 10:29:30;;;;;;;3.08;1.90;;;;;;;24.16;40.02;100160.88;5091177;28;20079;-80
2021/07/29 10:32:02;;;;;;;2.47;1.98;;;;;;;24.12;39.34;100176.59;5097992;28;20560;-81
2021/07/29 10:34:32;;;;;;;3.53;1.80;;;;;;;24.02;38.67;100160.50;5095891;28;20077;-80
2021/07/29 10:37:03;;;;;;;3.35;2.05;;;;;;;23.84;39.19;100172.44;5103201;28;20047;-81
2021/07/29 10:39:31;;;;;;;5.57;2.30;;;;;;;23.72;41.24;100169.19;5103218;28;20048;-81
2021/07/29 10:42:01;;;;;;;3.53;2.00;;;;;;;23.66;40.65;100167.09;5106907;28;20040;-80
2021/07/29 10:44:37;;;;;;;3.95;1.92;;;;;;;23.39;40.77;100174.38;5099906;28;20048;-80
2021/07/29 10:47:07;;;;;;;2.80;1.90;;;;;;;23.12;42.10;100163.72;5095480;28;20102;-80
2021/07/29 10:49:43;;;;;;;7.22;2.08;;;;;;;22.98;41.89;100175.91;5100146;28;20453;-81
2021/07/29 10:52:15;;;;;;;3.10;1.95;;;;;;;22.89;41.92;100168.78;5103175;28;20078;-81
2021/07/29 10:54:43;;;;;;;5.07;1.90;;;;;;;22.84;41.89;100172.94;5081045;28;20075;-81
2021/07/29 10:57:13;;;;;;;3.95;2.05;;;;;;;22.89;42.16;100176.03;5095183;28;20051;-81
2021/07/29 10:59:40;;;;;;;2.55;1.80;;;;;;;22.83;41.23;100166.69;5101789;28;20036;-79
2021/07/29 11:02:12;;;;;;;4.15;2.35;;;;;;;22.74;41.74;100170.31;5102265;28;20071;-80
2021/07/29 11:04:58;;;;;;;3.03;2.38;;;;;;;22.79;42.28;100176.13;5107802;28;20048;-82
2021/07/29 11:07:27;;;;;;;4.70;2.20;;;;;;;22.89;42.70;100171.47;5105872;28;20045;-79
2021/07/29 11:10:03;;;;;;;4.75;2.20;;;;;;;23.05;42.29;100168.91;5113132;28;20095;-82
2021/07/29 11:12:31;;;;;;;4.80;2.30;;;;;;;23.01;41.63;100170.22;5107660;28;20044;-84
2021/07/29 11:15:00;;;;;;;6.10;2.53;;;;;;;23.09;42.09;100164.03;5099113;28;20052;-87
2021/07/29 11:17:27;;;;;;;3.65;2.20;;;;;;;23.39;41.12;100155.47;5109211;28;20486;-82
2021/07/29 11:19:54;;;;;;;4.80;2.20;;;;;;;23.81;40.00;100164.63;5106717;28;20055;-82
2021/07/29 11:22:21;;;;;;;6.47;3.90;;;;;;;24.05;39.25;100164.75;5105513;28;20048;-80
2021/07/29 11:24:48;;;;;;;9.20;4.80;;;;;;;24.01;39.17;100166.06;5089448;28;20070;-79
2021/07/29 11:27:30;;;;;;;3.90;2.60;;;;;;;23.90;38.11;100166.38;5096097;28;20048;-80
2021/07/29 11:29:59;;;;;;;4.45;2.72;;;;;;;23.84;37.96;100167.88;5083696;28;20063;-79
2021/07/29 11:32:34;;;;;;;5.50;2.87;;;;;;;23.65;38.59;100163.56;5098786;28;20079;-79